sensor_id;sensor_type;location;lat;lon;timestamp;P1;durP1;ratioP1;P2;durP2;ratioP2
5465;SDS011;2755;50.728;7.108;2023-06-22T00:00:27;184.63;;;140.50;;
5465;SDS011;2755;50.728;7.108;2023-06-22T00:02:53;186.07;;;142.63;;
5465;SDS011;2755;50.728;7.108;2023-06-22T00:05:19;186.77;;;145.63;;
5465;SDS011;2755;50.728;7.108;2023-06-22T00:07:45;189.43;;;150.10;;
5465;SDS011;2755;50.728;7.108;2023-06-22T00:10:10;188.70;;;148.13;;
5465;SDS011;2755;50.728;7.108;2023-06-22T00:12:36;190.27;;;153.43;;
5465;SDS011;2755;50.728;7.108;2023-06-22T00:15:02;189.67;;;151.63;;
5465;SDS011;2755;50.728;7.108;2023-06-22T00:17:28;191.17;;;151.47;;
5465;SDS011;2755;50.728;7.108;2023-06-22T00:19:54;191.77;;;153.07;;
5465;SDS011;2755;50.728;7.108;2023-06-22T00:22:21;187.93;;;149.57;;
5465;SDS011;2755;50.728;7.108;2023-06-22T00:24:53;188.00;;;149.03;;
5465;SDS011;2755;50.728;7.108;2023-06-22T00:27:19;191.20;;;153.80;;
5465;SDS011;2755;50.728;7.108;2023-06-22T00:29:45;185.67;;;146.47;;
5465;SDS011;2755;50.728;7.108;2023-06-22T00:32:11;187.37;;;147.73;;
5465;SDS011;2755;50.728;7.108;2023-06-22T00:34:37;189.40;;;152.70;;
5465;SDS011;2755;50.728;7.108;2023-06-22T00:37:03;188.13;;;151.20;;
5465;SDS011;2755;50.728;7.108;2023-06-22T00:39:29;183.80;;;143.80;;
5465;SDS011;2755;50.728;7.108;2023-06-22T00:41:58;181.87;;;139.30;;
5465;SDS011;2755;50.728;7.108;2023-06-22T00:44:24;185.00;;;143.67;;
5465;SDS011;2755;50.728;7.108;2023-06-22T00:46:51;183.17;;;143.27;;
5465;SDS011;2755;50.728;7.108;2023-06-22T00:49:17;186.37;;;148.57;;
5465;SDS011;2755;50.728;7.108;2023-06-22T00:51:43;182.37;;;142.53;;
5465;SDS011;2755;50.728;7.108;2023-06-22T00:54:10;182.97;;;139.97;;
5465;SDS011;2755;50.728;7.108;2023-06-22T00:56:38;183.43;;;143.83;;
5465;SDS011;2755;50.728;7.108;2023-06-22T00:59:04;183.00;;;140.80;;
5465;SDS011;2755;50.728;7.108;2023-06-22T01:01:30;180.37;;;135.63;;
5465;SDS011;2755;50.728;7.108;2023-06-22T01:03:57;184.53;;;143.37;;
5465;SDS011;2755;50.728;7.108;2023-06-22T01:06:27;185.37;;;144.27;;
5465;SDS011;2755;50.728;7.108;2023-06-22T01:09:15;185.57;;;142.03;;
5465;SDS011;2755;50.728;7.108;2023-06-22T01:11:54;182.63;;;136.93;;
5465;SDS011;2755;50.728;7.108;2023-06-22T01:14:23;186.47;;;145.27;;
5465;SDS011;2755;50.728;7.108;2023-06-22T01:16:53;182.37;;;137.90;;
5465;SDS011;2755;50.728;7.108;2023-06-22T01:22:20;182.43;;;138.23;;
5465;SDS011;2755;50.728;7.108;2023-06-22T01:24:53;182.77;;;138.53;;
5465;SDS011;2755;50.728;7.108;2023-06-22T01:29:50;186.87;;;145.07;;
5465;SDS011;2755;50.728;7.108;2023-06-22T01:32:18;183.73;;;138.43;;
5465;SDS011;2755;50.728;7.108;2023-06-22T01:34:45;181.30;;;136.43;;
5465;SDS011;2755;50.728;7.108;2023-06-22T01:37:12;184.87;;;140.40;;
5465;SDS011;2755;50.728;7.108;2023-06-22T01:39:39;183.77;;;142.60;;
5465;SDS011;2755;50.728;7.108;2023-06-22T01:42:05;187.00;;;142.30;;
5465;SDS011;2755;50.728;7.108;2023-06-22T01:44:31;179.10;;;131.97;;
5465;SDS011;2755;50.728;7.108;2023-06-22T01:46:58;182.13;;;137.03;;
5465;SDS011;2755;50.728;7.108;2023-06-22T01:49:24;183.87;;;143.10;;
5465;SDS011;2755;50.728;7.108;2023-06-22T01:51:50;180.23;;;133.70;;
5465;SDS011;2755;50.728;7.108;2023-06-22T01:54:16;176.47;;;127.43;;
5465;SDS011;2755;50.728;7.108;2023-06-22T01:56:42;178.63;;;130.97;;
5465;SDS011;2755;50.728;7.108;2023-06-22T01:59:18;184.03;;;141.30;;
5465;SDS011;2755;50.728;7.108;2023-06-22T02:01:51;180.47;;;133.10;;
5465;SDS011;2755;50.728;7.108;2023-06-22T02:04:27;175.13;;;128.03;;
5465;SDS011;2755;50.728;7.108;2023-06-22T02:06:58;180.33;;;133.27;;
5465;SDS011;2755;50.728;7.108;2023-06-22T02:09:25;181.63;;;134.73;;
5465;SDS011;2755;50.728;7.108;2023-06-22T02:11:55;180.80;;;135.00;;
5465;SDS011;2755;50.728;7.108;2023-06-22T02:14:21;189.93;;;149.53;;
5465;SDS011;2755;50.728;7.108;2023-06-22T02:16:47;182.77;;;140.30;;
5465;SDS011;2755;50.728;7.108;2023-06-22T02:19:14;186.77;;;146.33;;
5465;SDS011;2755;50.728;7.108;2023-06-22T02:21:40;185.47;;;143.23;;
5465;SDS011;2755;50.728;7.108;2023-06-22T02:24:06;184.37;;;141.03;;
5465;SDS011;2755;50.728;7.108;2023-06-22T02:26:32;182.03;;;138.47;;
5465;SDS011;2755;50.728;7.108;2023-06-22T02:28:59;188.77;;;147.27;;
5465;SDS011;2755;50.728;7.108;2023-06-22T02:31:25;188.27;;;149.43;;
5465;SDS011;2755;50.728;7.108;2023-06-22T02:33:58;187.03;;;147.40;;
5465;SDS011;2755;50.728;7.108;2023-06-22T02:36:25;184.33;;;143.70;;
5465;SDS011;2755;50.728;7.108;2023-06-22T02:38:52;184.87;;;145.63;;
5465;SDS011;2755;50.728;7.108;2023-06-22T02:41:19;184.83;;;143.53;;
5465;SDS011;2755;50.728;7.108;2023-06-22T02:43:45;183.47;;;141.30;;
5465;SDS011;2755;50.728;7.108;2023-06-22T02:46:11;182.30;;;138.80;;
5465;SDS011;2755;50.728;7.108;2023-06-22T02:48:38;182.93;;;139.00;;
5465;SDS011;2755;50.728;7.108;2023-06-22T02:51:04;189.43;;;150.40;;
5465;SDS011;2755;50.728;7.108;2023-06-22T02:53:30;189.53;;;152.07;;
5465;SDS011;2755;50.728;7.108;2023-06-22T02:55:57;186.07;;;144.53;;
5465;SDS011;2755;50.728;7.108;2023-06-22T02:58:23;183.40;;;139.60;;
5465;SDS011;2755;50.728;7.108;2023-06-22T03:00:49;181.93;;;137.33;;
5465;SDS011;2755;50.728;7.108;2023-06-22T03:03:18;178.47;;;130.67;;
5465;SDS011;2755;50.728;7.108;2023-06-22T03:05:44;173.00;;;122.13;;
5465;SDS011;2755;50.728;7.108;2023-06-22T03:08:10;173.57;;;123.90;;
5465;SDS011;2755;50.728;7.108;2023-06-22T03:10:36;173.77;;;122.53;;
5465;SDS011;2755;50.728;7.108;2023-06-22T03:13:02;177.43;;;127.87;;
5465;SDS011;2755;50.728;7.108;2023-06-22T03:15:28;178.07;;;128.27;;
5465;SDS011;2755;50.728;7.108;2023-06-22T03:17:57;181.17;;;131.73;;
5465;SDS011;2755;50.728;7.108;2023-06-22T03:20:23;176.77;;;128.73;;
5465;SDS011;2755;50.728;7.108;2023-06-22T03:22:50;177.13;;;127.50;;
5465;SDS011;2755;50.728;7.108;2023-06-22T03:25:15;177.33;;;124.90;;
5465;SDS011;2755;50.728;7.108;2023-06-22T03:27:41;175.40;;;124.30;;
5465;SDS011;2755;50.728;7.108;2023-06-22T03:30:09;178.83;;;128.70;;
5465;SDS011;2755;50.728;7.108;2023-06-22T03:32:35;179.73;;;127.83;;
5465;SDS011;2755;50.728;7.108;2023-06-22T03:35:01;180.63;;;133.33;;
5465;SDS011;2755;50.728;7.108;2023-06-22T03:37:28;186.63;;;141.47;;
5465;SDS011;2755;50.728;7.108;2023-06-22T03:39:54;187.70;;;150.60;;
5465;SDS011;2755;50.728;7.108;2023-06-22T03:42:19;195.33;;;159.20;;
5465;SDS011;2755;50.728;7.108;2023-06-22T03:44:45;207.43;;;181.43;;
5465;SDS011;2755;50.728;7.108;2023-06-22T03:47:12;220.53;;;196.53;;
5465;SDS011;2755;50.728;7.108;2023-06-22T03:49:38;234.33;;;209.60;;
5465;SDS011;2755;50.728;7.108;2023-06-22T03:52:04;249.23;;;223.60;;
5465;SDS011;2755;50.728;7.108;2023-06-22T03:54:30;255.30;;;229.30;;
5465;SDS011;2755;50.728;7.108;2023-06-22T03:56:57;273.37;;;246.20;;
5465;SDS011;2755;50.728;7.108;2023-06-22T03:59:23;269.27;;;242.20;;
5465;SDS011;2755;50.728;7.108;2023-06-22T04:01:49;276.87;;;249.43;;
5465;SDS011;2755;50.728;7.108;2023-06-22T04:04:15;277.47;;;249.93;;
5465;SDS011;2755;50.728;7.108;2023-06-22T04:06:42;284.40;;;256.43;;
5465;SDS011;2755;50.728;7.108;2023-06-22T04:09:08;281.03;;;253.27;;
5465;SDS011;2755;50.728;7.108;2023-06-22T04:11:33;286.60;;;258.33;;
5465;SDS011;2755;50.728;7.108;2023-06-22T04:14:00;280.37;;;252.57;;
5465;SDS011;2755;50.728;7.108;2023-06-22T04:16:26;276.93;;;249.33;;
5465;SDS011;2755;50.728;7.108;2023-06-22T04:18:52;272.90;;;245.57;;
5465;SDS011;2755;50.728;7.108;2023-06-22T04:21:17;266.87;;;240.00;;
5465;SDS011;2755;50.728;7.108;2023-06-22T04:23:44;270.43;;;243.37;;
5465;SDS011;2755;50.728;7.108;2023-06-22T04:26:11;278.90;;;251.33;;
5465;SDS011;2755;50.728;7.108;2023-06-22T04:28:37;298.40;;;269.27;;
5465;SDS011;2755;50.728;7.108;2023-06-22T04:31:02;296.47;;;267.77;;
5465;SDS011;2755;50.728;7.108;2023-06-22T04:33:29;298.50;;;269.77;;
5465;SDS011;2755;50.728;7.108;2023-06-22T04:35:55;297.90;;;269.33;;
5465;SDS011;2755;50.728;7.108;2023-06-22T04:38:28;306.07;;;276.77;;
5465;SDS011;2755;50.728;7.108;2023-06-22T04:40:58;282.50;;;255.03;;
5465;SDS011;2755;50.728;7.108;2023-06-22T04:43:26;282.50;;;254.90;;
5465;SDS011;2755;50.728;7.108;2023-06-22T04:45:55;281.77;;;254.17;;
5465;SDS011;2755;50.728;7.108;2023-06-22T04:48:21;269.13;;;242.53;;
5465;SDS011;2755;50.728;7.108;2023-06-22T04:50:46;272.40;;;245.63;;
5465;SDS011;2755;50.728;7.108;2023-06-22T04:53:12;252.00;;;226.37;;
5465;SDS011;2755;50.728;7.108;2023-06-22T04:55:37;242.80;;;218.00;;
5465;SDS011;2755;50.728;7.108;2023-06-22T04:58:06;247.60;;;222.40;;
5465;SDS011;2755;50.728;7.108;2023-06-22T05:00:32;243.63;;;218.43;;
5465;SDS011;2755;50.728;7.108;2023-06-22T05:03:01;254.00;;;228.33;;
5465;SDS011;2755;50.728;7.108;2023-06-22T05:05:28;266.07;;;239.57;;
5465;SDS011;2755;50.728;7.108;2023-06-22T05:07:56;281.50;;;253.83;;
5465;SDS011;2755;50.728;7.108;2023-06-22T05:10:25;328.80;;;297.70;;
5465;SDS011;2755;50.728;7.108;2023-06-22T05:12:51;359.27;;;325.67;;
5465;SDS011;2755;50.728;7.108;2023-06-22T05:15:17;392.53;;;357.30;;
5465;SDS011;2755;50.728;7.108;2023-06-22T05:17:44;397.07;;;361.90;;
5465;SDS011;2755;50.728;7.108;2023-06-22T05:20:10;369.10;;;336.10;;
5465;SDS011;2755;50.728;7.108;2023-06-22T05:22:37;375.33;;;341.83;;
5465;SDS011;2755;50.728;7.108;2023-06-22T05:25:04;312.17;;;283.40;;
5465;SDS011;2755;50.728;7.108;2023-06-22T05:27:34;239.57;;;215.10;;
5465;SDS011;2755;50.728;7.108;2023-06-22T05:30:04;190.27;;;159.13;;
5465;SDS011;2755;50.728;7.108;2023-06-22T05:32:30;185.27;;;143.73;;
5465;SDS011;2755;50.728;7.108;2023-06-22T05:34:56;199.60;;;164.90;;
5465;SDS011;2755;50.728;7.108;2023-06-22T05:37:22;198.43;;;156.57;;
5465;SDS011;2755;50.728;7.108;2023-06-22T05:39:48;183.73;;;132.63;;
5465;SDS011;2755;50.728;7.108;2023-06-22T05:42:14;175.37;;;122.67;;
5465;SDS011;2755;50.728;7.108;2023-06-22T05:44:40;189.57;;;143.80;;
5465;SDS011;2755;50.728;7.108;2023-06-22T05:47:06;194.03;;;158.43;;
5465;SDS011;2755;50.728;7.108;2023-06-22T05:49:32;224.93;;;201.03;;
5465;SDS011;2755;50.728;7.108;2023-06-22T05:51:58;284.97;;;256.47;;
5465;SDS011;2755;50.728;7.108;2023-06-22T05:54:24;284.57;;;256.67;;
5465;SDS011;2755;50.728;7.108;2023-06-22T05:56:50;259.10;;;233.13;;
5465;SDS011;2755;50.728;7.108;2023-06-22T05:59:16;220.50;;;196.60;;
5465;SDS011;2755;50.728;7.108;2023-06-22T06:01:43;202.67;;;171.90;;
5465;SDS011;2755;50.728;7.108;2023-06-22T06:04:09;220.47;;;196.67;;
5465;SDS011;2755;50.728;7.108;2023-06-22T06:06:35;231.57;;;206.77;;
5465;SDS011;2755;50.728;7.108;2023-06-22T06:09:04;216.17;;;190.13;;
5465;SDS011;2755;50.728;7.108;2023-06-22T06:11:30;201.23;;;166.13;;
5465;SDS011;2755;50.728;7.108;2023-06-22T06:13:56;183.80;;;133.87;;
5465;SDS011;2755;50.728;7.108;2023-06-22T06:16:22;178.40;;;125.50;;
5465;SDS011;2755;50.728;7.108;2023-06-22T06:18:48;179.57;;;125.67;;
5465;SDS011;2755;50.728;7.108;2023-06-22T06:21:15;184.53;;;134.63;;
5465;SDS011;2755;50.728;7.108;2023-06-22T06:23:41;184.50;;;135.53;;
5465;SDS011;2755;50.728;7.108;2023-06-22T06:26:07;183.37;;;132.57;;
5465;SDS011;2755;50.728;7.108;2023-06-22T06:28:33;182.23;;;131.37;;
5465;SDS011;2755;50.728;7.108;2023-06-22T06:30:59;184.20;;;133.60;;
5465;SDS011;2755;50.728;7.108;2023-06-22T06:33:25;179.97;;;127.87;;
5465;SDS011;2755;50.728;7.108;2023-06-22T06:35:51;183.00;;;133.63;;
5465;SDS011;2755;50.728;7.108;2023-06-22T06:38:18;180.70;;;130.40;;
5465;SDS011;2755;50.728;7.108;2023-06-22T06:40:44;184.57;;;133.47;;
5465;SDS011;2755;50.728;7.108;2023-06-22T06:43:10;185.27;;;134.37;;
5465;SDS011;2755;50.728;7.108;2023-06-22T06:45:36;191.50;;;149.23;;
5465;SDS011;2755;50.728;7.108;2023-06-22T06:48:02;193.47;;;151.47;;
5465;SDS011;2755;50.728;7.108;2023-06-22T06:50:28;188.40;;;145.40;;
5465;SDS011;2755;50.728;7.108;2023-06-22T06:52:54;182.53;;;133.73;;
5465;SDS011;2755;50.728;7.108;2023-06-22T06:55:21;186.87;;;137.97;;
5465;SDS011;2755;50.728;7.108;2023-06-22T06:57:50;188.87;;;141.10;;
5465;SDS011;2755;50.728;7.108;2023-06-22T07:00:17;200.97;;;166.07;;
5465;SDS011;2755;50.728;7.108;2023-06-22T07:02:44;210.43;;;182.57;;
5465;SDS011;2755;50.728;7.108;2023-06-22T07:05:11;212.57;;;186.80;;
5465;SDS011;2755;50.728;7.108;2023-06-22T07:07:37;213.47;;;188.47;;
5465;SDS011;2755;50.728;7.108;2023-06-22T07:10:03;208.90;;;180.83;;
5465;SDS011;2755;50.728;7.108;2023-06-22T07:12:30;213.17;;;187.90;;
5465;SDS011;2755;50.728;7.108;2023-06-22T07:15:03;244.53;;;219.37;;
5465;SDS011;2755;50.728;7.108;2023-06-22T07:17:29;210.37;;;187.20;;
5465;SDS011;2755;50.728;7.108;2023-06-22T07:19:55;217.50;;;193.83;;
5465;SDS011;2755;50.728;7.108;2023-06-22T07:22:21;217.37;;;193.87;;
5465;SDS011;2755;50.728;7.108;2023-06-22T07:24:47;232.53;;;208.20;;
5465;SDS011;2755;50.728;7.108;2023-06-22T07:27:14;219.43;;;195.47;;
5465;SDS011;2755;50.728;7.108;2023-06-22T07:29:43;206.87;;;179.53;;
5465;SDS011;2755;50.728;7.108;2023-06-22T07:32:09;219.07;;;195.17;;
5465;SDS011;2755;50.728;7.108;2023-06-22T07:34:35;226.37;;;202.03;;
5465;SDS011;2755;50.728;7.108;2023-06-22T07:37:01;225.03;;;201.03;;
5465;SDS011;2755;50.728;7.108;2023-06-22T07:39:27;221.90;;;197.83;;
5465;SDS011;2755;50.728;7.108;2023-06-22T07:41:53;211.77;;;184.93;;
5465;SDS011;2755;50.728;7.108;2023-06-22T07:44:19;202.87;;;164.10;;
5465;SDS011;2755;50.728;7.108;2023-06-22T07:46:45;186.93;;;147.10;;
5465;SDS011;2755;50.728;7.108;2023-06-22T07:49:11;202.63;;;168.23;;
5465;SDS011;2755;50.728;7.108;2023-06-22T07:51:37;204.73;;;170.20;;
5465;SDS011;2755;50.728;7.108;2023-06-22T07:54:03;198.73;;;160.27;;
5465;SDS011;2755;50.728;7.108;2023-06-22T07:56:29;193.07;;;147.83;;
5465;SDS011;2755;50.728;7.108;2023-06-22T07:58:55;208.13;;;175.90;;
5465;SDS011;2755;50.728;7.108;2023-06-22T08:01:23;231.53;;;206.63;;
5465;SDS011;2755;50.728;7.108;2023-06-22T08:03:49;243.93;;;218.23;;
5465;SDS011;2755;50.728;7.108;2023-06-22T08:06:15;209.17;;;185.53;;
5465;SDS011;2755;50.728;7.108;2023-06-22T08:08:41;191.30;;;147.30;;
5465;SDS011;2755;50.728;7.108;2023-06-22T08:11:08;175.40;;;122.43;;
5465;SDS011;2755;50.728;7.108;2023-06-22T08:13:34;167.23;;;104.73;;
5465;SDS011;2755;50.728;7.108;2023-06-22T08:16:00;188.67;;;147.47;;
5465;SDS011;2755;50.728;7.108;2023-06-22T08:18:26;191.67;;;155.63;;
5465;SDS011;2755;50.728;7.108;2023-06-22T08:20:52;194.00;;;158.33;;
5465;SDS011;2755;50.728;7.108;2023-06-22T08:23:18;196.30;;;157.43;;
5465;SDS011;2755;50.728;7.108;2023-06-22T08:25:44;219.93;;;186.70;;
5465;SDS011;2755;50.728;7.108;2023-06-22T08:28:09;218.33;;;191.23;;
5465;SDS011;2755;50.728;7.108;2023-06-22T08:30:35;207.63;;;168.60;;
5465;SDS011;2755;50.728;7.108;2023-06-22T08:33:01;203.80;;;159.10;;
5465;SDS011;2755;50.728;7.108;2023-06-22T08:35:27;196.87;;;152.77;;
5465;SDS011;2755;50.728;7.108;2023-06-22T08:37:54;207.67;;;180.00;;
5465;SDS011;2755;50.728;7.108;2023-06-22T08:40:21;202.77;;;174.53;;
5465;SDS011;2755;50.728;7.108;2023-06-22T08:42:48;215.30;;;192.00;;
5465;SDS011;2755;50.728;7.108;2023-06-22T08:45:14;211.40;;;188.13;;
5465;SDS011;2755;50.728;7.108;2023-06-22T08:47:40;216.33;;;192.57;;
5465;SDS011;2755;50.728;7.108;2023-06-22T08:50:07;223.17;;;198.97;;
5465;SDS011;2755;50.728;7.108;2023-06-22T08:52:34;237.13;;;212.13;;
5465;SDS011;2755;50.728;7.108;2023-06-22T08:55:00;209.07;;;185.27;;
5465;SDS011;2755;50.728;7.108;2023-06-22T08:57:29;203.03;;;169.57;;
5465;SDS011;2755;50.728;7.108;2023-06-22T08:59:55;214.27;;;190.40;;
5465;SDS011;2755;50.728;7.108;2023-06-22T09:02:23;247.43;;;221.47;;
5465;SDS011;2755;50.728;7.108;2023-06-22T09:04:49;238.03;;;212.43;;
5465;SDS011;2755;50.728;7.108;2023-06-22T09:07:20;266.30;;;238.63;;
5465;SDS011;2755;50.728;7.108;2023-06-22T09:09:47;272.57;;;244.97;;
5465;SDS011;2755;50.728;7.108;2023-06-22T09:12:13;215.50;;;185.57;;
5465;SDS011;2755;50.728;7.108;2023-06-22T09:14:39;197.07;;;151.17;;
5465;SDS011;2755;50.728;7.108;2023-06-22T09:17:05;186.60;;;138.40;;
5465;SDS011;2755;50.728;7.108;2023-06-22T09:19:31;182.23;;;130.60;;
5465;SDS011;2755;50.728;7.108;2023-06-22T09:21:57;178.27;;;126.27;;
5465;SDS011;2755;50.728;7.108;2023-06-22T09:24:23;189.37;;;142.20;;
5465;SDS011;2755;50.728;7.108;2023-06-22T09:26:49;188.47;;;143.63;;
5465;SDS011;2755;50.728;7.108;2023-06-22T09:29:15;200.67;;;161.00;;
5465;SDS011;2755;50.728;7.108;2023-06-22T09:31:41;211.93;;;184.30;;
5465;SDS011;2755;50.728;7.108;2023-06-22T09:34:07;217.27;;;193.10;;
5465;SDS011;2755;50.728;7.108;2023-06-22T09:36:33;216.20;;;188.43;;
5465;SDS011;2755;50.728;7.108;2023-06-22T09:39:00;217.03;;;188.87;;
5465;SDS011;2755;50.728;7.108;2023-06-22T09:41:30;211.83;;;181.73;;
5465;SDS011;2755;50.728;7.108;2023-06-22T09:43:56;208.27;;;178.03;;
5465;SDS011;2755;50.728;7.108;2023-06-22T09:46:22;226.13;;;201.57;;
5465;SDS011;2755;50.728;7.108;2023-06-22T09:48:50;248.97;;;222.80;;
5465;SDS011;2755;50.728;7.108;2023-06-22T09:51:16;232.43;;;206.83;;
5465;SDS011;2755;50.728;7.108;2023-06-22T09:53:42;236.50;;;210.73;;
5465;SDS011;2755;50.728;7.108;2023-06-22T09:56:09;209.07;;;171.93;;
5465;SDS011;2755;50.728;7.108;2023-06-22T09:58:39;194.70;;;152.70;;
5465;SDS011;2755;50.728;7.108;2023-06-22T10:01:08;194.63;;;156.87;;
5465;SDS011;2755;50.728;7.108;2023-06-22T10:03:35;205.53;;;167.67;;
5465;SDS011;2755;50.728;7.108;2023-06-22T10:06:01;217.03;;;180.97;;
5465;SDS011;2755;50.728;7.108;2023-06-22T10:08:27;215.83;;;178.83;;
5465;SDS011;2755;50.728;7.108;2023-06-22T10:10:52;208.90;;;167.70;;
5465;SDS011;2755;50.728;7.108;2023-06-22T10:13:18;212.93;;;169.37;;
5465;SDS011;2755;50.728;7.108;2023-06-22T10:15:44;237.33;;;205.30;;
5465;SDS011;2755;50.728;7.108;2023-06-22T10:18:16;234.77;;;207.87;;
5465;SDS011;2755;50.728;7.108;2023-06-22T10:20:42;210.40;;;175.87;;
5465;SDS011;2755;50.728;7.108;2023-06-22T10:23:08;184.40;;;133.20;;
5465;SDS011;2755;50.728;7.108;2023-06-22T10:25:33;176.57;;;119.30;;
5465;SDS011;2755;50.728;7.108;2023-06-22T10:27:59;168.17;;;103.33;;
5465;SDS011;2755;50.728;7.108;2023-06-22T10:30:25;179.00;;;124.47;;
5465;SDS011;2755;50.728;7.108;2023-06-22T10:32:51;195.67;;;153.67;;
5465;SDS011;2755;50.728;7.108;2023-06-22T10:35:16;213.40;;;183.07;;
5465;SDS011;2755;50.728;7.108;2023-06-22T10:37:43;204.60;;;169.90;;
5465;SDS011;2755;50.728;7.108;2023-06-22T10:40:09;175.23;;;122.87;;
5465;SDS011;2755;50.728;7.108;2023-06-22T10:42:36;172.83;;;117.07;;
5465;SDS011;2755;50.728;7.108;2023-06-22T10:45:02;193.83;;;156.10;;
5465;SDS011;2755;50.728;7.108;2023-06-22T10:47:28;246.87;;;220.40;;
5465;SDS011;2755;50.728;7.108;2023-06-22T10:49:54;358.63;;;325.17;;
5465;SDS011;2755;50.728;7.108;2023-06-22T10:52:20;393.03;;;356.90;;
5465;SDS011;2755;50.728;7.108;2023-06-22T10:54:46;325.50;;;294.47;;
5465;SDS011;2755;50.728;7.108;2023-06-22T10:57:12;285.90;;;257.53;;
5465;SDS011;2755;50.728;7.108;2023-06-22T10:59:38;213.80;;;175.47;;
5465;SDS011;2755;50.728;7.108;2023-06-22T11:02:04;185.03;;;128.07;;
5465;SDS011;2755;50.728;7.108;2023-06-22T11:04:29;201.37;;;170.53;;
5465;SDS011;2755;50.728;7.108;2023-06-22T11:06:55;232.70;;;207.63;;
5465;SDS011;2755;50.728;7.108;2023-06-22T11:09:22;272.53;;;245.23;;
5465;SDS011;2755;50.728;7.108;2023-06-22T11:11:47;315.97;;;285.80;;
5465;SDS011;2755;50.728;7.108;2023-06-22T11:14:14;279.87;;;252.27;;
5465;SDS011;2755;50.728;7.108;2023-06-22T11:16:40;264.77;;;238.43;;
5465;SDS011;2755;50.728;7.108;2023-06-22T11:19:05;248.03;;;222.33;;
5465;SDS011;2755;50.728;7.108;2023-06-22T11:21:31;222.80;;;198.60;;
5465;SDS011;2755;50.728;7.108;2023-06-22T11:23:57;213.93;;;188.50;;
5465;SDS011;2755;50.728;7.108;2023-06-22T11:26:24;213.33;;;189.83;;
5465;SDS011;2755;50.728;7.108;2023-06-22T11:28:52;235.80;;;211.30;;
5465;SDS011;2755;50.728;7.108;2023-06-22T11:31:18;244.67;;;219.07;;
5465;SDS011;2755;50.728;7.108;2023-06-22T11:33:44;254.83;;;228.67;;
5465;SDS011;2755;50.728;7.108;2023-06-22T11:36:11;317.40;;;287.00;;
5465;SDS011;2755;50.728;7.108;2023-06-22T11:38:37;369.67;;;335.90;;
5465;SDS011;2755;50.728;7.108;2023-06-22T11:41:05;327.70;;;295.67;;
5465;SDS011;2755;50.728;7.108;2023-06-22T11:43:31;373.80;;;339.83;;
5465;SDS011;2755;50.728;7.108;2023-06-22T11:45:57;351.30;;;319.90;;
5465;SDS011;2755;50.728;7.108;2023-06-22T11:48:23;246.40;;;220.90;;
5465;SDS011;2755;50.728;7.108;2023-06-22T11:50:50;281.77;;;253.77;;
5465;SDS011;2755;50.728;7.108;2023-06-22T11:53:15;242.37;;;216.60;;
5465;SDS011;2755;50.728;7.108;2023-06-22T11:55:42;267.47;;;239.67;;
5465;SDS011;2755;50.728;7.108;2023-06-22T11:58:09;244.20;;;218.53;;
5465;SDS011;2755;50.728;7.108;2023-06-22T12:00:35;234.47;;;209.13;;
5465;SDS011;2755;50.728;7.108;2023-06-22T12:03:01;260.67;;;234.07;;
5465;SDS011;2755;50.728;7.108;2023-06-22T12:05:26;285.13;;;256.63;;
5465;SDS011;2755;50.728;7.108;2023-06-22T12:07:53;274.40;;;246.80;;
5465;SDS011;2755;50.728;7.108;2023-06-22T12:10:20;285.27;;;256.97;;
5465;SDS011;2755;50.728;7.108;2023-06-22T12:12:50;295.60;;;265.70;;
5465;SDS011;2755;50.728;7.108;2023-06-22T12:15:15;297.53;;;268.20;;
5465;SDS011;2755;50.728;7.108;2023-06-22T12:17:41;281.83;;;254.40;;
5465;SDS011;2755;50.728;7.108;2023-06-22T12:20:07;232.13;;;207.23;;
5465;SDS011;2755;50.728;7.108;2023-06-22T12:22:34;253.30;;;227.03;;
5465;SDS011;2755;50.728;7.108;2023-06-22T12:25:00;261.17;;;234.97;;
5465;SDS011;2755;50.728;7.108;2023-06-22T12:27:26;246.80;;;221.30;;
5465;SDS011;2755;50.728;7.108;2023-06-22T12:29:52;227.87;;;203.07;;
5465;SDS011;2755;50.728;7.108;2023-06-22T12:32:18;218.03;;;191.87;;
5465;SDS011;2755;50.728;7.108;2023-06-22T12:34:43;252.07;;;224.77;;
5465;SDS011;2755;50.728;7.108;2023-06-22T12:37:09;212.13;;;183.50;;
5465;SDS011;2755;50.728;7.108;2023-06-22T12:39:35;221.53;;;189.53;;
5465;SDS011;2755;50.728;7.108;2023-06-22T12:42:01;269.03;;;242.27;;
5465;SDS011;2755;50.728;7.108;2023-06-22T12:44:26;213.93;;;173.43;;
5465;SDS011;2755;50.728;7.108;2023-06-22T12:46:52;216.50;;;180.20;;
5465;SDS011;2755;50.728;7.108;2023-06-22T12:49:18;208.93;;;171.37;;
5465;SDS011;2755;50.728;7.108;2023-06-22T12:51:44;224.73;;;200.43;;
5465;SDS011;2755;50.728;7.108;2023-06-22T12:54:10;218.53;;;186.37;;
5465;SDS011;2755;50.728;7.108;2023-06-22T12:56:36;252.53;;;227.03;;
5465;SDS011;2755;50.728;7.108;2023-06-22T12:59:03;348.10;;;316.83;;
5465;SDS011;2755;50.728;7.108;2023-06-22T13:01:29;349.67;;;317.27;;
5465;SDS011;2755;50.728;7.108;2023-06-22T13:03:58;348.80;;;317.53;;
5465;SDS011;2755;50.728;7.108;2023-06-22T13:06:24;228.40;;;204.00;;
5465;SDS011;2755;50.728;7.108;2023-06-22T13:08:50;177.80;;;126.40;;
5465;SDS011;2755;50.728;7.108;2023-06-22T13:11:15;180.07;;;126.13;;
5465;SDS011;2755;50.728;7.108;2023-06-22T13:13:41;185.63;;;140.53;;
5465;SDS011;2755;50.728;7.108;2023-06-22T13:16:10;195.53;;;163.27;;
5465;SDS011;2755;50.728;7.108;2023-06-22T13:18:36;198.83;;;156.60;;
5465;SDS011;2755;50.728;7.108;2023-06-22T13:21:02;174.07;;;115.60;;
5465;SDS011;2755;50.728;7.108;2023-06-22T13:23:28;171.67;;;113.77;;
5465;SDS011;2755;50.728;7.108;2023-06-22T13:25:54;179.07;;;121.53;;
5465;SDS011;2755;50.728;7.108;2023-06-22T13:28:19;162.37;;;98.00;;
5465;SDS011;2755;50.728;7.108;2023-06-22T13:30:46;173.50;;;115.27;;
5465;SDS011;2755;50.728;7.108;2023-06-22T13:33:12;210.30;;;166.80;;
5465;SDS011;2755;50.728;7.108;2023-06-22T13:35:41;210.00;;;159.70;;
5465;SDS011;2755;50.728;7.108;2023-06-22T13:38:08;179.57;;;126.23;;
5465;SDS011;2755;50.728;7.108;2023-06-22T13:40:34;190.17;;;146.77;;
5465;SDS011;2755;50.728;7.108;2023-06-22T13:43:00;213.60;;;182.60;;
5465;SDS011;2755;50.728;7.108;2023-06-22T13:45:26;191.03;;;143.50;;
5465;SDS011;2755;50.728;7.108;2023-06-22T13:47:52;185.70;;;136.37;;
5465;SDS011;2755;50.728;7.108;2023-06-22T13:50:17;194.00;;;149.07;;
5465;SDS011;2755;50.728;7.108;2023-06-22T13:52:43;205.20;;;167.83;;
5465;SDS011;2755;50.728;7.108;2023-06-22T13:55:09;210.13;;;176.40;;
5465;SDS011;2755;50.728;7.108;2023-06-22T13:57:35;186.97;;;136.70;;
5465;SDS011;2755;50.728;7.108;2023-06-22T14:00:02;208.40;;;174.63;;
5465;SDS011;2755;50.728;7.108;2023-06-22T14:02:30;367.53;;;335.57;;
5465;SDS011;2755;50.728;7.108;2023-06-22T14:04:55;252.57;;;226.90;;
5465;SDS011;2755;50.728;7.108;2023-06-22T14:07:21;195.70;;;152.10;;
5465;SDS011;2755;50.728;7.108;2023-06-22T14:09:46;310.50;;;281.17;;
5465;SDS011;2755;50.728;7.108;2023-06-22T14:12:13;260.37;;;233.90;;
5465;SDS011;2755;50.728;7.108;2023-06-22T14:14:38;190.90;;;146.27;;
5465;SDS011;2755;50.728;7.108;2023-06-22T14:17:05;176.67;;;123.97;;
5465;SDS011;2755;50.728;7.108;2023-06-22T14:19:31;175.93;;;117.67;;
5465;SDS011;2755;50.728;7.108;2023-06-22T14:21:56;173.37;;;119.53;;